Time;durP1;ratioP1;P1;durP2;ratioP2;P2;SDS_P1;SDS_P2;PMS_P1;PMS_P2;Temp;Humidity;BMP_temperature;BMP_pressure;BME280_temperature;BME280_humidity;BME280_pressure;Samples;Min_cycle;Max_cycle;Signal;HPM_P1;HPM_P2
2024/04/23 00:02:22;;;;;;;30.42;16.00;;;-2.60;99.90;;;;;;6424706;22;20006;-82
2024/04/23 00:04:48;;;;;;;31.08;15.13;;;-2.60;99.90;;;;;;6425558;22;20017;-83
2024/04/23 00:07:13;;;;;;;30.08;14.93;;;-2.60;99.90;;;;;;6424818;22;20007;-83
2024/04/23 00:09:39;;;;;;;27.92;14.80;;;-2.60;99.90;;;;;;6425138;22;20017;-82
2024/04/23 00:12:05;;;;;;;29.40;15.93;;;-2.50;99.90;;;;;;6424361;22;20050;-83
2024/04/23 00:14:30;;;;;;;29.30;14.18;;;-2.50;99.90;;;;;;6425884;22;20303;-83
2024/04/23 00:17:00;;;;;;;26.77;13.20;;;-2.60;99.90;;;;;;6424727;22;20421;-82
2024/04/23 00:19:26;;;;;;;30.27;13.80;;;-2.60;99.90;;;;;;6424904;22;20436;-82
2024/04/23 00:21:51;;;;;;;23.83;12.52;;;-2.60;99.90;;;;;;6424969;22;20006;-82
2024/04/23 00:24:17;;;;;;;24.35;13.70;;;-2.60;99.90;;;;;;6422395;22;20085;-82
2024/04/23 00:26:57;;;;;;;24.02;14.18;;;-2.50;99.90;;;;;;6425467;22;20013;-82
2024/04/23 00:29:24;;;;;;;24.58;13.38;;;-2.50;99.90;;;;;;6424919;22;20021;-82
2024/04/23 00:31:50;;;;;;;26.80;14.40;;;-2.50;99.90;;;;;;6380899;22;20007;-82
2024/04/23 00:34:15;;;;;;;24.35;12.55;;;-2.50;99.90;;;;;;6424859;22;20013;-82
2024/04/23 00:36:58;;;;;;;21.38;11.77;;;-2.50;99.90;;;;;;6424893;22;20035;-82
2024/04/23 00:39:24;;;;;;;21.38;12.13;;;-2.50;99.90;;;;;;6469000;22;20018;-83
2024/04/23 00:41:50;;;;;;;27.92;13.48;;;-2.50;99.90;;;;;;6431113;22;19994;-84
2024/04/23 00:44:16;;;;;;;24.98;14.02;;;-2.60;99.90;;;;;;6430654;22;20010;-83
2024/04/23 00:46:43;;;;;;;23.15;12.63;;;-2.50;99.90;;;;;;6430592;22;20006;-81
2024/04/23 00:49:13;;;;;;;24.50;13.50;;;-2.60;99.90;;;;;;6474841;22;20384;-81
2024/04/23 00:51:40;;;;;;;27.25;14.30;;;-2.60;99.90;;;;;;6475442;22;20409;-82
2024/04/23 00:54:09;;;;;;;25.50;14.23;;;-2.60;99.90;;;;;;6474801;22;20464;-81
2024/04/23 00:56:35;;;;;;;26.10;13.70;;;-2.70;99.90;;;;;;6475405;22;20080;-82
2024/04/23 00:59:02;;;;;;;24.42;13.80;;;-2.70;99.90;;;;;;6474583;22;20439;-81
2024/04/23 01:01:28;;;;;;;31.30;14.68;;;-2.70;99.90;;;;;;6475095;22;20010;-81
2024/04/23 01:03:54;;;;;;;26.48;15.07;;;-2.80;99.90;;;;;;6474200;22;20316;-81
2024/04/23 01:06:20;;;;;;;29.10;13.98;;;-2.80;99.90;;;;;;6430774;22;20017;-81
2024/04/23 01:08:46;;;;;;;24.58;14.68;;;-2.80;99.90;;;;;;6475178;22;19998;-80
2024/04/23 01:11:12;;;;;;;26.67;13.82;;;-2.90;99.90;;;;;;6430642;22;20012;-81
2024/04/23 01:13:37;;;;;;;29.80;15.77;;;-2.90;99.90;;;;;;6474479;22;20005;-80
2024/04/23 01:16:04;;;;;;;30.08;14.88;;;-2.90;99.90;;;;;;6474452;22;20005;-80
2024/04/23 01:18:29;;;;;;;24.77;13.63;;;-2.90;99.90;;;;;;6474484;22;20034;-80
2024/04/23 01:20:58;;;;;;;27.50;15.18;;;-3.00;99.90;;;;;;6431179;22;20002;-81
2024/04/23 01:23:44;;;;;;;29.75;16.58;;;-3.00;99.90;;;;;;6474971;22;20492;-81
2024/04/23 01:26:09;;;;;;;27.70;15.82;;;-3.00;99.90;;;;;;6474562;22;20016;-82
2024/04/23 01:28:40;;;;;;;27.27;14.57;;;-2.90;99.90;;;;;;6474799;22;20014;-79
2024/04/23 01:31:08;;;;;;;28.40;16.50;;;-3.00;99.90;;;;;;6478225;22;20006;-79
2024/04/23 01:33:35;;;;;;;37.63;19.90;;;-3.00;99.90;;;;;;6432214;22;20013;-79
2024/04/23 01:36:03;;;;;;;35.83;18.38;;;-3.00;99.90;;;;;;6429548;22;20013;-80
2024/04/23 01:38:31;;;;;;;35.17;19.80;;;-3.10;99.90;;;;;;6475056;22;20071;-81
2024/04/23 01:40:56;;;;;;;34.22;18.27;;;-3.10;99.90;;;;;;6428765;22;20001;-81
2024/04/23 01:43:22;;;;;;;33.40;17.88;;;-3.10;99.90;;;;;;6473987;22;20439;-79
2024/04/23 01:45:49;;;;;;;31.48;18.27;;;-3.10;99.90;;;;;;6474594;22;20542;-79
2024/04/23 01:48:15;;;;;;;26.85;15.02;;;-3.10;99.90;;;;;;6429867;22;19997;-79
2024/04/23 01:50:41;;;;;;;27.83;16.05;;;-3.20;99.90;;;;;;6475472;22;20060;-78
2024/04/23 01:53:06;;;;;;;28.75;17.10;;;-3.20;99.90;;;;;;6474666;22;20087;-79
2024/04/23 01:55:32;;;;;;;31.45;17.38;;;-3.20;99.90;;;;;;6474219;22;20005;-81
2024/04/23 01:57:58;;;;;;;30.10;15.55;;;-3.10;99.90;;;;;;6474280;22;20002;-84
2024/04/23 02:00:24;;;;;;;33.80;16.88;;;-3.20;99.90;;;;;;6474090;22;20001;-83
2024/04/23 02:02:52;;;;;;;33.53;16.80;;;-3.10;99.90;;;;;;6475238;22;20294;-84
2024/04/23 02:05:18;;;;;;;29.58;15.93;;;-3.10;99.90;;;;;;6429913;22;20088;-84
2024/04/23 02:07:45;;;;;;;32.25;17.13;;;-3.10;99.90;;;;;;6474376;22;20075;-84
2024/04/23 02:10:11;;;;;;;41.50;19.40;;;-3.10;99.90;;;;;;6474327;22;20030;-84
2024/04/23 02:12:40;;;;;;;44.28;21.60;;;-3.10;99.90;;;;;;6474424;22;20006;-84
2024/04/23 02:15:07;;;;;;;40.70;23.25;;;-3.00;99.90;;;;;;6429498;22;19993;-84
2024/04/23 02:17:33;;;;;;;50.05;24.65;;;-3.00;99.90;;;;;;6475113;22;20045;-84
2024/04/23 02:19:59;;;;;;;46.78;24.02;;;-2.90;99.90;;;;;;6429687;22;20413;-84
2024/04/23 02:22:25;;;;;;;49.63;24.70;;;-2.90;99.90;;;;;;6473822;22;20006;-84
2024/04/23 02:24:50;;;;;;;45.15;21.20;;;-2.90;99.90;;;;;;6429845;22;20009;-84
2024/04/23 02:27:16;;;;;;;35.70;20.15;;;-2.80;99.90;;;;;;6474265;22;20398;-84
2024/04/23 02:29:42;;;;;;;46.30;23.85;;;-2.80;99.90;;;;;;6474332;22;20049;-84
2024/04/23 02:32:07;;;;;;;38.33;20.40;;;-2.80;99.90;;;;;;6474129;22;20009;-85
2024/04/23 02:34:33;;;;;;;36.28;20.08;;;-2.80;99.90;;;;;;6430084;22;20010;-84
2024/04/23 02:36:58;;;;;;;38.80;21.52;;;-2.80;99.90;;;;;;6473861;22;20008;-84
2024/04/23 02:39:24;;;;;;;39.97;21.02;;;-2.80;99.90;;;;;;6474197;22;20505;-84
2024/04/23 02:41:51;;;;;;;36.72;20.50;;;-2.80;99.90;;;;;;6474892;22;19997;-84
2024/04/23 02:44:17;;;;;;;36.08;20.67;;;-2.80;99.90;;;;;;6430082;22;20467;-79
2024/04/23 02:46:43;;;;;;;36.88;20.42;;;-2.80;99.90;;;;;;6474194;22;20005;-79
2024/04/23 02:49:09;;;;;;;45.13;21.67;;;-2.90;99.90;;;;;;6474343;22;20006;-79
2024/04/23 02:51:34;;;;;;;40.33;20.98;;;-2.90;99.90;;;;;;6430096;22;20017;-79
2024/04/23 02:54:00;;;;;;;46.67;21.95;;;-2.90;99.90;;;;;;6431141;22;19997;-78
2024/04/23 02:56:26;;;;;;;32.60;17.38;;;-2.90;99.90;;;;;;6475998;22;20005;-79
2024/04/23 02:58:52;;;;;;;31.25;17.58;;;-3.00;99.90;;;;;;6475416;22;20009;-78
2024/04/23 03:01:18;;;;;;;30.77;17.10;;;-3.00;99.90;;;;;;6430709;22;20005;-80
2024/04/23 03:03:43;;;;;;;33.78;18.67;;;-3.00;99.90;;;;;;6474692;22;20110;-81
2024/04/23 03:06:09;;;;;;;35.60;18.98;;;-3.00;99.90;;;;;;6473336;22;20016;-80
2024/04/23 03:08:34;;;;;;;34.65;18.50;;;-3.10;99.90;;;;;;6430418;22;20344;-81
2024/04/23 03:11:00;;;;;;;37.72;18.88;;;-3.20;99.90;;;;;;6429580;22;20387;-82
2024/04/23 03:13:26;;;;;;;35.72;19.10;;;-3.20;99.90;;;;;;6473907;22;20020;-81
2024/04/23 03:15:51;;;;;;;37.25;17.33;;;-3.20;99.90;;;;;;6473384;22;20021;-82
2024/04/23 03:18:17;;;;;;;29.45;17.65;;;-3.20;99.90;;;;;;6474088;22;20030;-81
2024/04/23 03:20:43;;;;;;;33.72;17.63;;;-3.20;99.90;;;;;;6429997;22;20017;-82
2024/04/23 03:23:08;;;;;;;35.35;17.52;;;-3.20;99.90;;;;;;6474244;22;20412;-82
2024/04/23 03:25:34;;;;;;;28.75;15.80;;;-3.30;99.90;;;;;;6473714;22;20020;-81
2024/04/23 03:28:00;;;;;;;27.15;15.40;;;-3.30;99.90;;;;;;6429665;22;20034;-81
2024/04/23 03:30:25;;;;;;;27.27;15.43;;;-3.30;99.90;;;;;;6429742;22;20014;-81
2024/04/23 03:32:51;;;;;;;33.75;16.02;;;-3.30;99.90;;;;;;6476616;22;20012;-85
2024/04/23 03:35:16;;;;;;;28.33;14.82;;;-3.30;99.90;;;;;;6476366;22;20020;-85
2024/04/23 03:37:42;;;;;;;46.47;20.70;;;-3.40;99.90;;;;;;6423446;22;20018;-84
2024/04/23 03:40:08;;;;;;;62.45;25.40;;;-3.30;99.90;;;;;;6381903;22;20013;-84
2024/04/23 03:42:34;;;;;;;89.60;36.85;;;-3.30;99.90;;;;;;6382204;22;20309;-83
2024/04/23 03:44:59;;;;;;;94.10;37.60;;;-3.30;99.90;;;;;;6381838;22;19998;-84
2024/04/23 03:47:25;;;;;;;90.32;37.55;;;-3.40;99.90;;;;;;6425196;22;20006;-84
2024/04/23 03:49:51;;;;;;;85.68;31.42;;;-3.40;99.90;;;;;;6381488;22;20302;-84
2024/04/23 03:52:17;;;;;;;87.25;30.02;;;-3.40;99.90;;;;;;6425339;22;20298;-84
2024/04/23 03:54:44;;;;;;;38.17;18.02;;;-3.40;99.90;;;;;;6425161;22;20011;-82
2024/04/23 03:57:10;;;;;;;30.92;18.30;;;-3.40;99.90;;;;;;6381363;22;20006;-82
2024/04/23 03:59:36;;;;;;;36.95;17.48;;;-3.40;99.90;;;;;;6382193;22;20294;-82
2024/04/23 04:07:30;;;;;;;31.67;14.57;;;-3.20;99.90;;;;;;6424784;22;20085;-81
2024/04/23 04:09:56;;;;;;;31.08;16.00;;;-3.00;99.90;;;;;;6425202;22;20066;-81
2024/04/23 04:12:21;;;;;;;31.20;16.05;;;-2.90;99.90;;;;;;6424704;22;20017;-81
2024/04/23 04:14:47;;;;;;;27.35;15.57;;;-2.70;99.90;;;;;;6425899;22;20416;-81
2024/04/23 04:17:13;;;;;;;28.88;15.40;;;-2.60;99.90;;;;;;6423979;22;20014;-81
2024/04/23 04:19:40;;;;;;;27.60;14.85;;;-2.50;99.90;;;;;;6425153;22;20006;-81
2024/04/23 04:22:06;;;;;;;34.15;16.02;;;-2.30;99.90;;;;;;6380787;22;20002;-82
2024/04/23 04:24:32;;;;;;;38.83;19.00;;;-2.20;99.90;;;;;;6425236;22;20006;-82
2024/04/23 04:26:58;;;;;;;245.85;72.97;;;-2.10;99.90;;;;;;6380943;22;20013;-81
2024/04/23 04:29:23;;;;;;;271.20;87.03;;;-1.90;99.90;;;;;;6425525;22;20025;-82
2024/04/23 04:31:49;;;;;;;125.68;42.50;;;-1.80;99.90;;;;;;6380728;22;20006;-82
2024/04/23 04:34:15;;;;;;;73.95;29.15;;;-1.70;99.90;;;;;;6424910;22;20006;-81
2024/04/23 04:36:40;;;;;;;37.75;17.00;;;-1.60;99.90;;;;;;6424703;22;20018;-81
2024/04/23 04:39:06;;;;;;;33.35;15.73;;;-1.50;99.90;;;;;;6462596;22;20002;-81
2024/04/23 04:41:32;;;;;;;29.88;16.95;;;-1.50;99.90;;;;;;6475772;22;20727;-82
2024/04/23 04:43:58;;;;;;;23.58;13.93;;;-1.40;99.90;;;;;;6475241;22;20438;-82
2024/04/23 04:46:23;;;;;;;36.85;16.60;;;-1.40;99.90;;;;;;6474514;22;20027;-82
2024/04/23 04:48:49;;;;;;;40.22;17.95;;;-1.30;99.90;;;;;;6475418;22;20005;-80
2024/04/23 04:51:15;;;;;;;49.55;20.05;;;-1.20;99.90;;;;;;6431712;22;20396;-81
2024/04/23 04:53:40;;;;;;;45.00;19.25;;;-1.10;99.90;;;;;;6431879;22;20081;-82
2024/04/23 04:56:06;;;;;;;89.25;31.20;;;-1.10;99.90;;;;;;6474043;22;20041;-80
2024/04/23 04:58:32;;;;;;;43.92;21.50;;;-1.00;99.90;;;;;;6430471;22;20308;-80
2024/04/23 05:00:57;;;;;;;29.92;16.38;;;-1.00;99.90;;;;;;6430703;22;20013;-82
2024/04/23 05:03:23;;;;;;;26.67;14.98;;;-0.90;99.90;;;;;;6474645;22;20021;-80
2024/04/23 05:05:49;;;;;;;30.95;15.10;;;-0.80;99.90;;;;;;6475728;22;19994;-83
2024/04/23 05:08:14;;;;;;;29.95;14.93;;;-0.70;99.90;;;;;;6474274;22;20005;-82
2024/04/23 05:10:41;;;;;;;19.85;11.15;;;-0.50;99.90;;;;;;6430522;22;20014;-82
2024/04/23 05:13:06;;;;;;;19.52;13.07;;;-0.40;99.90;;;;;;6428143;22;20023;-83
2024/04/23 05:15:32;;;;;;;18.55;10.55;;;-0.20;99.90;;;;;;6474440;22;20017;-84
2024/04/23 05:17:58;;;;;;;23.17;12.52;;;0.00;99.90;;;;;;6474198;22;20002;-80
2024/04/23 05:20:23;;;;;;;22.95;12.95;;;0.10;99.90;;;;;;6475457;22;20038;-84
2024/04/23 05:22:49;;;;;;;22.80;12.90;;;0.20;99.90;;;;;;6474594;22;20006;-83
2024/04/23 05:25:15;;;;;;;19.52;11.88;;;0.30;99.90;;;;;;6475079;22;20018;-84
2024/04/23 05:27:40;;;;;;;22.02;14.15;;;0.30;99.90;;;;;;6474080;22;20006;-86
2024/04/23 05:30:06;;;;;;;21.00;13.32;;;0.40;99.90;;;;;;6475273;22;20006;-80
2024/04/23 05:32:47;;;;;;;25.27;13.07;;;0.50;99.90;;;;;;6475562;22;19994;-81
2024/04/23 05:35:13;;;;;;;25.27;14.55;;;0.60;99.90;;;;;;6474941;22;20002;-81
2024/04/23 05:37:39;;;;;;;26.67;13.43;;;0.70;99.90;;;;;;6474684;22;20385;-81
2024/04/23 05:40:07;;;;;;;22.98;13.00;;;0.80;99.90;;;;;;6475478;22;20320;-84
2024/04/23 05:42:33;;;;;;;21.00;11.55;;;0.90;99.90;;;;;;6474589;22;20020;-84
2024/04/23 05:44:59;;;;;;;21.30;12.38;;;1.00;99.90;;;;;;6474443;22;19997;-81
2024/04/23 05:47:25;;;;;;;16.90;10.50;;;1.00;99.90;;;;;;6474673;22;20093;-82
2024/04/23 05:50:28;;;;;;;19.92;11.75;;;1.00;99.90;;;;;;6472308;22;20017;-82
2024/04/23 05:53:31;;;;;;;18.52;11.52;;;1.00;99.90;;;;;;6428850;22;20106;-82
2024/04/23 05:55:57;;;;;;;20.17;10.13;;;1.00;99.90;;;;;;6473911;22;20425;-82
2024/04/23 05:58:22;;;;;;;18.20;10.27;;;1.10;99.90;;;;;;6473504;22;20010;-82
2024/04/23 06:00:48;;;;;;;20.02;10.75;;;1.10;99.90;;;;;;6426366;22;20002;-82
2024/04/23 06:03:14;;;;;;;16.02;9.93;;;1.20;99.90;;;;;;6469202;22;20026;-82
2024/04/23 06:05:39;;;;;;;32.25;13.40;;;1.20;99.90;;;;;;6468952;22;20008;-82
2024/04/23 06:08:05;;;;;;;16.25;9.90;;;1.30;99.90;;;;;;6468886;22;20002;-81
2024/04/23 06:10:31;;;;;;;19.10;11.18;;;1.40;99.20;;;;;;6467168;22;20005;-82
2024/04/23 06:12:57;;;;;;;18.23;9.82;;;1.40;97.50;;;;;;6426876;22;20119;-82
2024/04/23 06:15:22;;;;;;;19.48;10.68;;;1.50;96.90;;;;;;6473451;22;20020;-84
2024/04/23 06:17:48;;;;;;;14.32;8.68;;;1.50;96.50;;;;;;6472738;22;20490;-84
2024/04/23 06:20:14;;;;;;;19.02;10.18;;;1.40;93.50;;;;;;6473527;22;20020;-84
2024/04/23 06:22:40;;;;;;;13.02;9.32;;;1.40;94.30;;;;;;6473666;22;20308;-84
2024/04/23 06:25:08;;;;;;;18.00;10.20;;;1.50;95.30;;;;;;6473961;22;20019;-82
2024/04/23 06:27:37;;;;;;;13.90;9.30;;;1.50;92.60;;;;;;6471724;22;20010;-84
2024/04/23 06:30:11;;;;;;;13.93;8.32;;;1.50;92.40;;;;;;6426657;22;20307;-84
2024/04/23 06:32:38;;;;;;;13.27;9.30;;;1.50;92.90;;;;;;6472799;22;20013;-84
2024/04/23 06:35:04;;;;;;;18.27;9.73;;;1.60;93.60;;;;;;6473675;22;20013;-84
2024/04/23 06:37:30;;;;;;;14.70;8.45;;;1.70;91.40;;;;;;6469972;22;20005;-84
2024/04/23 06:39:56;;;;;;;14.52;9.75;;;1.80;91.40;;;;;;6470002;22;20303;-84
2024/04/23 06:42:22;;;;;;;18.40;10.55;;;1.80;91.00;;;;;;6470355;22;20073;-84
2024/04/23 06:44:48;;;;;;;13.80;8.68;;;2.00;91.90;;;;;;6470680;22;19994;-84
2024/04/23 06:47:14;;;;;;;23.15;11.65;;;2.00;88.00;;;;;;6426025;22;20308;-84
2024/04/23 06:49:42;;;;;;;15.02;9.50;;;2.10;86.80;;;;;;6469694;22;20006;-84
2024/04/23 06:52:14;;;;;;;16.98;9.45;;;2.20;86.50;;;;;;6426887;22;20002;-84
2024/04/23 06:54:41;;;;;;;20.02;10.63;;;2.20;84.30;;;;;;6474074;22;20422;-85
2024/04/23 06:57:06;;;;;;;15.55;9.40;;;2.30;83.40;;;;;;6429609;22;20372;-84
2024/04/23 06:59:33;;;;;;;14.77;9.23;;;2.50;84.50;;;;;;6474308;22;20013;-84
2024/04/23 07:01:58;;;;;;;17.65;9.60;;;2.60;83.30;;;;;;6473972;22;20333;-84
2024/04/23 07:04:24;;;;;;;13.23;9.27;;;2.80;82.40;;;;;;6473915;22;20429;-84
2024/04/23 07:06:53;;;;;;;13.15;8.60;;;2.90;81.60;;;;;;6431848;22;20009;-84
2024/04/23 07:09:19;;;;;;;18.02;10.73;;;3.00;80.00;;;;;;6431052;22;20081;-85
2024/04/23 07:11:45;;;;;;;14.45;8.95;;;2.90;77.40;;;;;;6431394;22;20006;-84
2024/04/23 07:14:10;;;;;;;15.13;9.98;;;3.10;78.50;;;;;;6431595;22;20073;-84
2024/04/23 07:16:36;;;;;;;13.02;9.07;;;3.10;78.30;;;;;;6476151;22;20052;-84
2024/04/23 07:19:02;;;;;;;12.95;8.57;;;3.10;77.00;;;;;;6475776;22;20005;-84
2024/04/23 07:21:27;;;;;;;14.73;8.57;;;3.10;75.10;;;;;;6474883;22;20109;-84
2024/04/23 07:23:53;;;;;;;17.00;9.63;;;3.10;76.10;;;;;;6475581;22;20082;-84
2024/04/23 07:26:19;;;;;;;18.48;10.35;;;3.10;76.70;;;;;;6475862;22;20006;-84
2024/04/23 07:28:45;;;;;;;14.00;10.48;;;3.20;76.60;;;;;;6431260;22;20417;-84
2024/04/23 07:31:10;;;;;;;16.85;10.15;;;3.20;76.30;;;;;;6431841;22;20065;-84
2024/04/23 07:33:36;;;;;;;13.00;9.30;;;3.30;76.00;;;;;;6431904;22;20084;-85
2024/04/23 07:36:02;;;;;;;19.27;10.63;;;3.40;76.00;;;;;;6431352;22;20009;-84
2024/04/23 07:38:27;;;;;;;18.60;9.93;;;3.50;75.30;;;;;;6474906;22;19998;-84
2024/04/23 07:40:53;;;;;;;13.85;9.40;;;3.60;74.40;;;;;;6431412;22;20013;-84
2024/04/23 07:43:19;;;;;;;11.82;8.52;;;3.80;73.20;;;;;;6431858;22;20019;-85
2024/04/23 07:45:44;;;;;;;14.45;9.35;;;3.70;71.40;;;;;;6475562;22;20002;-84
2024/04/23 07:48:10;;;;;;;13.65;9.02;;;3.80;71.60;;;;;;6475416;22;19998;-84
2024/04/23 07:50:36;;;;;;;15.77;8.77;;;3.80;70.40;;;;;;6476359;22;20001;-85
2024/04/23 07:53:06;;;;;;;18.38;10.68;;;3.90;71.70;;;;;;6475290;22;20042;-84
2024/04/23 07:55:32;;;;;;;14.20;8.98;;;3.90;71.30;;;;;;6475483;22;20002;-84
2024/04/23 07:57:58;;;;;;;14.98;9.35;;;3.90;71.00;;;;;;6475460;22;20033;-84
2024/04/23 08:00:24;;;;;;;13.68;9.45;;;3.90;71.80;;;;;;6475619;22;20088;-84
2024/04/23 08:02:56;;;;;;;13.73;9.18;;;4.10;72.60;;;;;;6476388;22;19997;-84
2024/04/23 08:05:22;;;;;;;22.33;10.85;;;4.20;71.70;;;;;;6475501;22;20025;-84
2024/04/23 08:07:48;;;;;;;15.20;9.95;;;4.10;71.60;;;;;;6475267;22;20424;-85
2024/04/23 08:10:17;;;;;;;14.75;10.38;;;4.10;72.50;;;;;;6430913;22;20006;-84
2024/04/23 08:12:43;;;;;;;14.80;9.70;;;4.10;71.20;;;;;;6475506;22;20033;-85
2024/04/23 08:15:09;;;;;;;14.48;8.88;;;4.10;70.40;;;;;;6473019;22;20008;-84
2024/04/23 08:17:34;;;;;;;14.15;9.38;;;4.30;71.10;;;;;;6467326;22;19998;-85
2024/04/23 08:20:00;;;;;;;14.13;10.20;;;4.20;71.10;;;;;;6473530;22;20435;-85
2024/04/23 08:22:26;;;;;;;14.98;9.63;;;4.10;70.60;;;;;;6472673;22;20013;-84
2024/04/23 08:24:51;;;;;;;13.25;8.93;;;4.20;71.30;;;;;;6475581;22;20016;-84
2024/04/23 08:27:17;;;;;;;14.57;10.27;;;4.10;71.00;;;;;;6475375;22;20018;-85
2024/04/23 08:29:43;;;;;;;15.93;9.82;;;4.20;71.60;;;;;;6475760;22;19998;-84
2024/04/23 08:32:08;;;;;;;14.43;10.07;;;4.10;71.50;;;;;;6475552;22;20375;-84
2024/04/23 08:34:34;;;;;;;16.27;10.23;;;4.30;72.00;;;;;;6473082;22;20057;-85
2024/04/23 08:37:00;;;;;;;13.32;9.98;;;4.30;71.20;;;;;;6474960;22;20053;-85
2024/04/23 08:39:25;;;;;;;14.65;9.98;;;4.50;71.40;;;;;;6475098;22;20006;-84
2024/04/23 08:41:52;;;;;;;13.48;9.63;;;4.70;72.60;;;;;;6475931;22;20072;-78
2024/04/23 08:44:51;;;;;;;15.40;10.38;;;4.80;71.40;;;;;;6475167;22;20017;-78
2024/04/23 08:47:17;;;;;;;17.02;10.05;;;5.00;70.50;;;;;;6472586;22;20428;-77
2024/04/23 08:49:44;;;;;;;16.45;10.00;;;5.10;70.10;;;;;;6474976;22;20033;-78
2024/04/23 08:52:12;;;;;;;12.07;9.50;;;5.30;69.80;;;;;;6474890;22;20024;-80
2024/04/23 08:54:39;;;;;;;13.85;9.73;;;5.60;70.20;;;;;;6472971;22;20010;-79
2024/04/23 08:57:07;;;;;;;15.00;9.10;;;5.70;68.50;;;;;;6515356;22;19994;-79
2024/04/23 08:59:33;;;;;;;13.80;9.07;;;5.70;68.60;;;;;;6476060;22;20002;-79
2024/04/23 09:02:03;;;;;;;16.80;9.55;;;5.90;68.50;;;;;;6474661;22;20002;-78
2024/04/23 09:04:29;;;;;;;13.20;7.88;;;6.00;67.30;;;;;;6474861;22;20312;-83
2024/04/23 09:06:55;;;;;;;12.60;8.20;;;5.90;66.00;;;;;;6475252;22;20348;-86
2024/04/23 09:09:21;;;;;;;12.75;8.02;;;6.20;66.90;;;;;;6471843;22;20093;-79
2024/04/23 09:11:51;;;;;;;10.65;7.90;;;6.50;66.90;;;;;;6473372;22;20034;-79
2024/04/23 09:14:18;;;;;;;13.63;9.20;;;6.50;65.40;;;;;;6472431;22;20013;-79
2024/04/23 09:16:43;;;;;;;13.07;8.60;;;6.60;64.80;;;;;;6474820;22;20415;-78
2024/04/23 09:19:09;;;;;;;13.55;9.07;;;6.80;65.00;;;;;;6474340;22;20021;-78
2024/04/23 09:21:36;;;;;;;12.13;8.80;;;6.80;64.40;;;;;;6472531;22;20020;-79
2024/04/23 09:24:03;;;;;;;12.27;8.48;;;6.90;64.30;;;;;;6474645;22;19998;-79
2024/04/23 09:26:29;;;;;;;12.90;9.02;;;6.80;63.90;;;;;;6474338;22;20038;-79
2024/04/23 09:28:56;;;;;;;13.15;9.13;;;6.70;64.10;;;;;;6474603;22;20017;-87
2024/04/23 09:31:24;;;;;;;14.38;9.80;;;6.70;64.30;;;;;;6472988;22;20020;-87
2024/04/23 09:33:57;;;;;;;14.02;9.90;;;6.80;65.20;;;;;;6473649;22;20014;-86
2024/04/23 09:36:23;;;;;;;;;;;6.80;65.00;;;;;;6472404;22;20025;-86
2024/04/23 09:38:55;;;;;;;14.85;9.32;;;6.80;65.10;;;;;;6474480;22;19922;-86
2024/04/23 09:41:24;;;;;;;14.80;10.23;;;6.80;64.70;;;;;;6468761;22;20029;-86
2024/04/23 09:44:03;;;;;;;15.05;10.65;;;6.90;65.10;;;;;;6470975;22;20017;-86
2024/04/23 09:46:33;;;;;;;13.85;9.68;;;7.00;64.20;;;;;;6469232;22;20008;-86
2024/04/23 09:49:02;;;;;;;12.40;9.45;;;7.40;64.20;;;;;;6467345;22;20006;-87
2024/04/23 09:51:29;;;;;;;16.05;9.23;;;7.20;63.40;;;;;;6468020;22;20377;-86
2024/04/23 09:53:59;;;;;;;13.50;10.32;;;7.40;64.50;;;;;;6466367;22;19998;-86
2024/04/23 09:56:25;;;;;;;13.88;9.68;;;7.50;62.90;;;;;;6468711;22;20335;-86
2024/04/23 09:58:50;;;;;;;15.90;10.20;;;7.50;62.80;;;;;;6467457;22;20006;-86
2024/04/23 10:01:30;;;;;;;12.38;9.77;;;7.90;64.40;;;;;;6470431;22;20006;-87
2024/04/23 10:03:59;;;;;;;15.48;10.55;;;8.00;62.70;;;;;;6474674;22;20046;-86
2024/04/23 10:06:26;;;;;;;14.73;10.55;;;8.10;62.90;;;;;;6474495;22;20009;-86
2024/04/23 10:09:12;;;;;;;14.85;10.13;;;8.50;63.80;;;;;;6474800;22;19998;-87
2024/04/23 10:11:37;;;;;;;18.70;11.18;;;8.60;62.50;;;;;;6474564;22;20009;-86
2024/04/23 10:14:17;;;;;;;16.15;10.57;;;8.70;62.00;;;;;;6473096;22;20019;-86
2024/04/23 10:17:13;;;;;;;17.58;10.95;;;8.70;62.10;;;;;;6473917;22;20005;-86
2024/04/23 10:19:41;;;;;;;13.93;9.80;;;8.30;60.80;;;;;;6481557;22;20081;-87
2024/04/23 10:22:07;;;;;;;15.80;9.48;;;8.70;63.00;;;;;;6474263;22;20033;-86
2024/04/23 10:24:33;;;;;;;13.35;9.75;;;9.10;63.20;;;;;;6474346;22;20037;-86
2024/04/23 10:27:00;;;;;;;11.05;8.20;;;8.90;62.30;;;;;;6514243;22;20681;-86
2024/04/23 10:29:27;;;;;;;16.45;9.80;;;8.60;60.40;;;;;;6474687;22;20525;-87
2024/04/23 10:31:54;;;;;;;14.43;9.93;;;8.30;60.50;;;;;;6474384;22;20424;-86
2024/04/23 10:34:20;;;;;;;16.98;11.65;;;8.20;62.00;;;;;;6474271;22;20447;-86
2024/04/23 10:36:51;;;;;;;14.65;10.77;;;7.90;63.00;;;;;;6474191;22;20002;-86
2024/04/23 10:39:21;;;;;;;17.85;10.63;;;7.90;64.00;;;;;;6474176;22;20073;-87
2024/04/23 10:41:47;;;;;;;14.13;10.18;;;7.70;63.20;;;;;;6472822;22;20336;-86
2024/04/23 10:44:15;;;;;;;19.70;11.50;;;7.70;64.20;;;;;;6474655;22;20081;-86
2024/04/23 10:46:43;;;;;;;16.55;10.20;;;7.50;64.60;;;;;;6474579;22;20010;-87
2024/04/23 10:49:15;;;;;;;15.00;9.98;;;7.60;65.00;;;;;;6472071;22;20014;-86
2024/04/23 10:51:46;;;;;;;20.42;11.25;;;7.70;65.00;;;;;;6474735;22;20340;-87
2024/04/23 10:54:22;;;;;;;18.40;10.65;;;7.80;64.60;;;;;;6474262;22;20012;-86
2024/04/23 10:57:04;;;;;;;14.00;10.32;;;8.20;64.50;;;;;;6473146;22;19998;-87
2024/04/23 10:59:36;;;;;;;14.32;9.82;;;8.50;64.00;;;;;;6474615;22;20014;-86
2024/04/23 11:02:06;;;;;;;15.93;9.55;;;8.60;63.50;;;;;;6474605;22;20006;-86
2024/04/23 11:04:45;;;;;;;12.82;9.98;;;8.50;63.00;;;;;;6474579;22;20017;-86
2024/04/23 11:07:12;;;;;;;15.30;9.27;;;8.40;62.20;;;;;;6471974;22;20020;-87
2024/04/23 11:09:41;;;;;;;14.35;9.77;;;8.50;61.40;;;;;;6515312;22;20002;-85
2024/04/23 11:12:17;;;;;;;13.48;9.52;;;8.60;61.40;;;;;;6473913;22;19998;-84
2024/04/23 11:14:42;;;;;;;18.27;11.45;;;8.60;61.70;;;;;;6474391;22;19994;-85
2024/04/23 11:17:08;;;;;;;17.58;10.80;;;8.60;62.30;;;;;;6473419;22;20052;-85
2024/04/23 11:19:38;;;;;;;15.20;10.60;;;8.90;61.90;;;;;;6473555;22;20487;-78
2024/04/23 11:22:09;;;;;;;14.27;10.30;;;8.60;61.10;;;;;;6473816;22;20038;-83
2024/04/23 11:24:44;;;;;;;18.15;11.35;;;8.40;62.40;;;;;;6473827;22;20339;-78
2024/04/23 11:27:12;;;;;;;19.08;12.18;;;8.10;63.50;;;;;;6471123;22;20034;-83
2024/04/23 11:29:42;;;;;;;16.05;11.63;;;8.20;64.50;;;;;;6471768;22;19998;-84
2024/04/23 11:32:08;;;;;;;16.05;10.85;;;8.40;64.70;;;;;;6473703;22;20010;-82
2024/04/23 11:34:34;;;;;;;15.20;10.82;;;8.80;64.80;;;;;;6472903;22;20002;-85
2024/04/23 11:37:00;;;;;;;14.50;10.70;;;8.90;62.20;;;;;;6473087;22;20012;-80
2024/04/23 11:39:26;;;;;;;15.00;11.35;;;9.30;63.50;;;;;;6470008;22;20009;-85
2024/04/23 11:41:55;;;;;;;14.98;10.60;;;9.20;60.80;;;;;;6474288;22;20505;-84
2024/04/23 11:44:21;;;;;;;13.02;9.88;;;9.30;58.10;;;;;;6471523;22;20315;-84
2024/04/23 11:46:53;;;;;;;16.85;10.23;;;9.30;59.50;;;;;;6473507;22;20002;-80
2024/04/23 11:49:20;;;;;;;16.50;11.15;;;9.50;59.80;;;;;;6471102;22;20329;-83
2024/04/23 11:51:47;;;;;;;19.83;11.55;;;9.40;60.20;;;;;;6474318;22;20065;-88
2024/04/23 11:54:13;;;;;;;19.20;12.13;;;9.10;59.90;;;;;;6471596;22;20005;-87
2024/04/23 11:56:39;;;;;;;17.25;11.75;;;8.70;60.50;;;;;;6474248;22;19998;-86
2024/04/23 11:59:05;;;;;;;16.90;11.18;;;8.50;61.40;;;;;;6473405;22;20002;-84
2024/04/23 12:01:31;;;;;;;18.08;12.05;;;8.20;62.10;;;;;;6473865;22;20316;-85
2024/04/23 12:03:57;;;;;;;14.88;11.10;;;8.30;62.00;;;;;;6471532;22;20010;-85
2024/04/23 12:06:24;;;;;;;19.00;12.00;;;8.70;62.70;;;;;;6469868;22;20006;-84
2024/04/23 12:08:50;;;;;;;16.70;11.52;;;8.90;61.90;;;;;;6469048;22;20320;-85
2024/04/23 12:11:16;;;;;;;16.13;11.68;;;9.10;61.60;;;;;;6469174;22;20016;-85
2024/04/23 12:13:48;;;;;;;18.00;11.07;;;9.00;60.60;;;;;;6467648;22;20006;-85
2024/04/23 12:16:15;;;;;;;;;;;9.10;59.90;;;;;;6470363;22;20106;-85
2024/04/23 12:18:41;;;;;;;14.73;10.40;;;9.20;60.10;;;;;;6468024;22;19933;-85
2024/04/23 12:21:08;;;;;;;14.88;9.57;;;9.40;60.30;;;;;;6470367;22;20002;-85
2024/04/23 12:23:35;;;;;;;17.65;11.43;;;9.30;59.90;;;;;;6470956;22;19997;-85
2024/04/23 12:26:00;;;;;;;14.98;10.30;;;9.40;58.70;;;;;;6470269;22;20006;-85
2024/04/23 12:28:26;;;;;;;16.98;10.38;;;9.60;61.00;;;;;;6467662;22;20409;-85
2024/04/23 12:30:52;;;;;;;16.50;9.77;;;9.80;60.80;;;;;;6466888;22;20056;-85
2024/04/23 12:33:18;;;;;;;14.32;10.68;;;9.70;58.20;;;;;;6472525;22;20032;-84
2024/04/23 12:35:44;;;;;;;14.32;10.20;;;9.60;58.70;;;;;;6470672;22;20035;-85
2024/04/23 12:38:10;;;;;;;18.52;11.32;;;9.20;59.10;;;;;;6474811;22;20408;-85
2024/04/23 12:40:36;;;;;;;14.80;10.13;;;9.10;59.10;;;;;;6475218;22;20313;-85
2024/04/23 12:43:08;;;;;;;13.18;9.50;;;9.00;58.80;;;;;;6475014;22;20001;-85